sensor_id;sensor_type;location;lat;lon;timestamp;P1;durP1;ratioP1;P2;durP2;ratioP2
37781;SDS011;23621;50.878;4.584;2022-12-31T00:01:50;0.90;;;0.90;;
37781;SDS011;23621;50.878;4.584;2022-12-31T00:04:17;0.90;;;0.90;;
37781;SDS011;23621;50.878;4.584;2022-12-31T00:06:44;1.08;;;1.08;;
37781;SDS011;23621;50.878;4.584;2022-12-31T00:09:12;1.00;;;1.00;;
37781;SDS011;23621;50.878;4.584;2022-12-31T00:11:39;0.90;;;0.90;;
37781;SDS011;23621;50.878;4.584;2022-12-31T00:14:06;1.00;;;1.00;;
37781;SDS011;23621;50.878;4.584;2022-12-31T00:16:34;1.00;;;1.00;;
37781;SDS011;23621;50.878;4.584;2022-12-31T00:19:03;0.90;;;0.90;;
37781;SDS011;23621;50.878;4.584;2022-12-31T00:21:32;0.90;;;0.90;;
37781;SDS011;23621;50.878;4.584;2022-12-31T00:23:59;1.95;;;1.02;;
37781;SDS011;23621;50.878;4.584;2022-12-31T00:26:28;0.82;;;0.80;;
37781;SDS011;23621;50.878;4.584;2022-12-31T00:28:56;1.38;;;1.00;;
37781;SDS011;23621;50.878;4.584;2022-12-31T00:31:26;0.65;;;0.65;;
37781;SDS011;23621;50.878;4.584;2022-12-31T00:33:57;0.95;;;0.95;;
37781;SDS011;23621;50.878;4.584;2022-12-31T00:38:54;1.00;;;0.90;;
37781;SDS011;23621;50.878;4.584;2022-12-31T00:41:22;0.75;;;0.75;;
37781;SDS011;23621;50.878;4.584;2022-12-31T00:43:50;1.45;;;0.90;;
37781;SDS011;23621;50.878;4.584;2022-12-31T00:46:17;0.70;;;0.70;;
37781;SDS011;23621;50.878;4.584;2022-12-31T00:48:45;0.90;;;0.90;;
37781;SDS011;23621;50.878;4.584;2022-12-31T00:51:14;1.33;;;1.33;;
37781;SDS011;23621;50.878;4.584;2022-12-31T00:53:42;0.55;;;0.55;;
37781;SDS011;23621;50.878;4.584;2022-12-31T00:56:11;0.85;;;0.85;;
37781;SDS011;23621;50.878;4.584;2022-12-31T00:58:43;0.70;;;0.70;;
37781;SDS011;23621;50.878;4.584;2022-12-31T01:01:20;1.25;;;0.80;;
37781;SDS011;23621;50.878;4.584;2022-12-31T01:03:53;0.80;;;0.80;;
37781;SDS011;23621;50.878;4.584;2022-12-31T01:06:23;0.60;;;0.60;;
37781;SDS011;23621;50.878;4.584;2022-12-31T01:08:50;0.82;;;0.60;;
37781;SDS011;23621;50.878;4.584;2022-12-31T01:11:18;0.63;;;0.60;;
37781;SDS011;23621;50.878;4.584;2022-12-31T01:14:02;0.80;;;0.80;;
37781;SDS011;23621;50.878;4.584;2022-12-31T01:16:36;1.08;;;0.50;;
37781;SDS011;23621;50.878;4.584;2022-12-31T01:19:08;0.77;;;0.77;;
37781;SDS011;23621;50.878;4.584;2022-12-31T01:21:38;0.60;;;0.60;;
37781;SDS011;23621;50.878;4.584;2022-12-31T01:24:06;1.88;;;0.60;;
37781;SDS011;23621;50.878;4.584;2022-12-31T01:26:34;0.70;;;0.70;;
37781;SDS011;23621;50.878;4.584;2022-12-31T01:29:02;0.50;;;0.50;;
37781;SDS011;23621;50.878;4.584;2022-12-31T01:31:31;0.50;;;0.50;;
37781;SDS011;23621;50.878;4.584;2022-12-31T01:33:59;0.52;;;0.52;;
37781;SDS011;23621;50.878;4.584;2022-12-31T01:36:27;0.65;;;0.65;;
37781;SDS011;23621;50.878;4.584;2022-12-31T01:38:56;0.88;;;0.75;;
37781;SDS011;23621;50.878;4.584;2022-12-31T01:41:27;0.70;;;0.70;;
37781;SDS011;23621;50.878;4.584;2022-12-31T01:43:58;1.83;;;0.65;;
37781;SDS011;23621;50.878;4.584;2022-12-31T01:46:50;0.57;;;0.57;;
37781;SDS011;23621;50.878;4.584;2022-12-31T01:49:21;0.70;;;0.70;;
37781;SDS011;23621;50.878;4.584;2022-12-31T01:52:00;1.20;;;0.85;;
37781;SDS011;23621;50.878;4.584;2022-12-31T01:54:28;0.60;;;0.60;;
37781;SDS011;23621;50.878;4.584;2022-12-31T01:56:58;0.73;;;0.73;;
37781;SDS011;23621;50.878;4.584;2022-12-31T01:59:26;0.77;;;0.70;;
37781;SDS011;23621;50.878;4.584;2022-12-31T02:01:55;0.60;;;0.60;;
37781;SDS011;23621;50.878;4.584;2022-12-31T02:04:23;0.80;;;0.80;;
37781;SDS011;23621;50.878;4.584;2022-12-31T02:06:52;0.77;;;0.70;;
37781;SDS011;23621;50.878;4.584;2022-12-31T02:09:20;0.65;;;0.65;;
37781;SDS011;23621;50.878;4.584;2022-12-31T02:11:47;0.70;;;0.70;;
37781;SDS011;23621;50.878;4.584;2022-12-31T02:14:21;1.70;;;0.75;;
37781;SDS011;23621;50.878;4.584;2022-12-31T02:30:46;1.30;;;0.73;;
37781;SDS011;23621;50.878;4.584;2022-12-31T02:33:28;0.60;;;0.60;;
37781;SDS011;23621;50.878;4.584;2022-12-31T02:36:02;0.98;;;0.80;;
37781;SDS011;23621;50.878;4.584;2022-12-31T02:38:50;1.17;;;0.90;;
37781;SDS011;23621;50.878;4.584;2022-12-31T02:41:18;1.95;;;0.85;;
37781;SDS011;23621;50.878;4.584;2022-12-31T02:46:46;1.27;;;0.85;;
37781;SDS011;23621;50.878;4.584;2022-12-31T02:49:35;2.10;;;1.05;;
37781;SDS011;23621;50.878;4.584;2022-12-31T02:55:17;1.20;;;1.00;;
37781;SDS011;23621;50.878;4.584;2022-12-31T03:01:17;0.88;;;0.80;;
37781;SDS011;23621;50.878;4.584;2022-12-31T03:04:06;1.38;;;0.90;;
37781;SDS011;23621;50.878;4.584;2022-12-31T03:06:51;2.03;;;1.25;;
37781;SDS011;23621;50.878;4.584;2022-12-31T03:09:19;0.90;;;0.90;;
37781;SDS011;23621;50.878;4.584;2022-12-31T03:11:46;2.15;;;1.02;;
37781;SDS011;23621;50.878;4.584;2022-12-31T03:14:31;1.08;;;0.98;;
37781;SDS011;23621;50.878;4.584;2022-12-31T03:16:58;1.52;;;1.10;;
37781;SDS011;23621;50.878;4.584;2022-12-31T03:19:25;2.13;;;0.93;;
37781;SDS011;23621;50.878;4.584;2022-12-31T03:22:11;2.15;;;1.00;;
37781;SDS011;23621;50.878;4.584;2022-12-31T03:24:58;1.73;;;1.02;;
37781;SDS011;23621;50.878;4.584;2022-12-31T03:27:49;2.72;;;1.00;;
37781;SDS011;23621;50.878;4.584;2022-12-31T03:30:17;1.50;;;0.90;;
37781;SDS011;23621;50.878;4.584;2022-12-31T03:32:45;1.67;;;0.88;;
37781;SDS011;23621;50.878;4.584;2022-12-31T03:35:13;1.95;;;0.88;;
37781;SDS011;23621;50.878;4.584;2022-12-31T03:37:41;3.15;;;1.10;;
37781;SDS011;23621;50.878;4.584;2022-12-31T03:40:09;1.80;;;0.90;;
37781;SDS011;23621;50.878;4.584;2022-12-31T03:42:37;2.00;;;1.10;;
37781;SDS011;23621;50.878;4.584;2022-12-31T03:45:04;2.38;;;0.80;;
37781;SDS011;23621;50.878;4.584;2022-12-31T03:47:32;1.23;;;0.93;;
37781;SDS011;23621;50.878;4.584;2022-12-31T03:49:59;1.13;;;0.90;;
37781;SDS011;23621;50.878;4.584;2022-12-31T03:52:25;1.52;;;0.68;;
37781;SDS011;23621;50.878;4.584;2022-12-31T03:54:52;1.67;;;1.10;;
37781;SDS011;23621;50.878;4.584;2022-12-31T03:57:19;1.75;;;0.82;;
37781;SDS011;23621;50.878;4.584;2022-12-31T03:59:47;1.27;;;0.63;;
37781;SDS011;23621;50.878;4.584;2022-12-31T04:02:14;1.88;;;1.15;;
37781;SDS011;23621;50.878;4.584;2022-12-31T04:04:41;0.80;;;0.80;;
37781;SDS011;23621;50.878;4.584;2022-12-31T04:07:08;1.58;;;0.90;;
37781;SDS011;23621;50.878;4.584;2022-12-31T04:09:35;1.33;;;0.88;;
37781;SDS011;23621;50.878;4.584;2022-12-31T04:12:02;1.95;;;0.85;;
37781;SDS011;23621;50.878;4.584;2022-12-31T04:14:29;2.38;;;1.17;;
37781;SDS011;23621;50.878;4.584;2022-12-31T04:16:56;2.72;;;0.80;;
37781;SDS011;23621;50.878;4.584;2022-12-31T04:19:23;1.45;;;0.90;;
37781;SDS011;23621;50.878;4.584;2022-12-31T04:21:50;1.10;;;0.80;;
37781;SDS011;23621;50.878;4.584;2022-12-31T04:24:17;2.20;;;1.10;;
37781;SDS011;23621;50.878;4.584;2022-12-31T04:26:44;0.60;;;0.60;;
37781;SDS011;23621;50.878;4.584;2022-12-31T04:29:11;2.65;;;1.05;;
37781;SDS011;23621;50.878;4.584;2022-12-31T04:31:38;2.55;;;1.00;;
37781;SDS011;23621;50.878;4.584;2022-12-31T04:34:05;0.70;;;0.70;;
37781;SDS011;23621;50.878;4.584;2022-12-31T04:36:32;1.65;;;1.10;;
37781;SDS011;23621;50.878;4.584;2022-12-31T04:38:59;1.85;;;1.00;;
37781;SDS011;23621;50.878;4.584;2022-12-31T04:41:26;2.15;;;1.02;;
37781;SDS011;23621;50.878;4.584;2022-12-31T04:43:54;0.82;;;0.80;;
37781;SDS011;23621;50.878;4.584;2022-12-31T04:46:23;3.60;;;0.95;;
37781;SDS011;23621;50.878;4.584;2022-12-31T04:48:55;2.70;;;1.10;;
37781;SDS011;23621;50.878;4.584;2022-12-31T04:51:23;1.75;;;0.90;;
37781;SDS011;23621;50.878;4.584;2022-12-31T04:53:51;1.17;;;0.85;;
37781;SDS011;23621;50.878;4.584;2022-12-31T04:56:19;1.13;;;0.60;;
37781;SDS011;23621;50.878;4.584;2022-12-31T04:58:47;2.63;;;0.95;;
37781;SDS011;23621;50.878;4.584;2022-12-31T05:01:13;1.83;;;1.10;;
37781;SDS011;23621;50.878;4.584;2022-12-31T05:03:41;0.70;;;0.65;;
37781;SDS011;23621;50.878;4.584;2022-12-31T05:06:10;1.58;;;0.90;;
37781;SDS011;23621;50.878;4.584;2022-12-31T05:08:39;1.15;;;0.88;;
37781;SDS011;23621;50.878;4.584;2022-12-31T05:11:06;1.50;;;0.70;;
37781;SDS011;23621;50.878;4.584;2022-12-31T05:13:33;1.55;;;0.82;;
37781;SDS011;23621;50.878;4.584;2022-12-31T05:16:00;2.17;;;0.90;;
37781;SDS011;23621;50.878;4.584;2022-12-31T05:18:28;2.75;;;1.25;;
37781;SDS011;23621;50.878;4.584;2022-12-31T05:20:55;1.60;;;1.00;;
37781;SDS011;23621;50.878;4.584;2022-12-31T05:23:23;1.17;;;1.05;;
37781;SDS011;23621;50.878;4.584;2022-12-31T05:25:50;0.80;;;0.80;;
37781;SDS011;23621;50.878;4.584;2022-12-31T05:28:18;2.30;;;1.35;;
37781;SDS011;23621;50.878;4.584;2022-12-31T05:30:48;2.90;;;1.10;;
37781;SDS011;23621;50.878;4.584;2022-12-31T05:33:17;1.30;;;0.60;;
37781;SDS011;23621;50.878;4.584;2022-12-31T05:35:44;1.70;;;0.93;;
37781;SDS011;23621;50.878;4.584;2022-12-31T05:38:11;1.15;;;0.82;;
37781;SDS011;23621;50.878;4.584;2022-12-31T05:40:38;0.85;;;0.80;;
37781;SDS011;23621;50.878;4.584;2022-12-31T05:43:05;1.65;;;1.05;;
37781;SDS011;23621;50.878;4.584;2022-12-31T05:45:32;1.63;;;0.88;;
37781;SDS011;23621;50.878;4.584;2022-12-31T05:47:59;2.47;;;0.80;;
37781;SDS011;23621;50.878;4.584;2022-12-31T05:50:26;1.35;;;0.88;;
37781;SDS011;23621;50.878;4.584;2022-12-31T05:52:53;1.83;;;0.88;;
37781;SDS011;23621;50.878;4.584;2022-12-31T05:55:20;1.88;;;0.98;;
37781;SDS011;23621;50.878;4.584;2022-12-31T05:57:47;1.52;;;1.00;;
37781;SDS011;23621;50.878;4.584;2022-12-31T06:00:14;2.42;;;1.15;;
37781;SDS011;23621;50.878;4.584;2022-12-31T06:02:41;2.40;;;0.80;;
37781;SDS011;23621;50.878;4.584;2022-12-31T06:05:08;1.85;;;1.00;;
37781;SDS011;23621;50.878;4.584;2022-12-31T06:07:35;2.58;;;1.10;;
37781;SDS011;23621;50.878;4.584;2022-12-31T06:10:03;1.35;;;0.65;;
37781;SDS011;23621;50.878;4.584;2022-12-31T06:12:30;3.08;;;1.10;;
37781;SDS011;23621;50.878;4.584;2022-12-31T06:14:57;2.78;;;1.58;;
37781;SDS011;23621;50.878;4.584;2022-12-31T06:17:24;4.22;;;1.30;;
37781;SDS011;23621;50.878;4.584;2022-12-31T06:19:51;1.40;;;0.98;;
37781;SDS011;23621;50.878;4.584;2022-12-31T06:22:18;2.08;;;0.85;;
37781;SDS011;23621;50.878;4.584;2022-12-31T06:24:45;2.92;;;1.10;;
37781;SDS011;23621;50.878;4.584;2022-12-31T06:27:12;2.80;;;1.55;;
37781;SDS011;23621;50.878;4.584;2022-12-31T06:29:39;3.00;;;1.40;;
37781;SDS011;23621;50.878;4.584;2022-12-31T06:32:06;3.40;;;1.13;;
37781;SDS011;23621;50.878;4.584;2022-12-31T06:34:34;2.25;;;1.10;;
37781;SDS011;23621;50.878;4.584;2022-12-31T06:37:01;1.63;;;1.05;;
37781;SDS011;23621;50.878;4.584;2022-12-31T06:39:28;3.22;;;1.25;;
37781;SDS011;23621;50.878;4.584;2022-12-31T06:41:55;3.70;;;1.08;;
37781;SDS011;23621;50.878;4.584;2022-12-31T06:44:22;1.13;;;0.80;;
37781;SDS011;23621;50.878;4.584;2022-12-31T06:46:49;2.00;;;1.00;;
37781;SDS011;23621;50.878;4.584;2022-12-31T06:49:16;0.93;;;0.82;;
37781;SDS011;23621;50.878;4.584;2022-12-31T06:51:43;1.88;;;1.35;;
37781;SDS011;23621;50.878;4.584;2022-12-31T06:54:12;1.65;;;1.30;;
37781;SDS011;23621;50.878;4.584;2022-12-31T06:56:40;1.20;;;1.10;;
37781;SDS011;23621;50.878;4.584;2022-12-31T06:59:14;1.63;;;1.00;;
37781;SDS011;23621;50.878;4.584;2022-12-31T07:05:00;1.58;;;0.95;;
37781;SDS011;23621;50.878;4.584;2022-12-31T07:07:48;1.05;;;0.90;;
37781;SDS011;23621;50.878;4.584;2022-12-31T07:21:13;4.18;;;1.25;;
37781;SDS011;23621;50.878;4.584;2022-12-31T07:23:43;1.50;;;1.10;;
37781;SDS011;23621;50.878;4.584;2022-12-31T07:26:17;2.03;;;1.05;;
37781;SDS011;23621;50.878;4.584;2022-12-31T07:29:06;3.15;;;1.05;;
37781;SDS011;23621;50.878;4.584;2022-12-31T07:34:36;2.53;;;1.08;;
37781;SDS011;23621;50.878;4.584;2022-12-31T07:37:08;1.95;;;1.10;;
37781;SDS011;23621;50.878;4.584;2022-12-31T07:42:35;2.15;;;0.95;;
37781;SDS011;23621;50.878;4.584;2022-12-31T07:45:15;1.27;;;0.90;;
37781;SDS011;23621;50.878;4.584;2022-12-31T07:47:46;2.85;;;1.15;;
37781;SDS011;23621;50.878;4.584;2022-12-31T07:50:14;0.95;;;0.95;;
37781;SDS011;23621;50.878;4.584;2022-12-31T07:52:43;1.63;;;0.95;;
37781;SDS011;23621;50.878;4.584;2022-12-31T07:55:11;1.15;;;0.90;;
37781;SDS011;23621;50.878;4.584;2022-12-31T08:01:00;1.75;;;1.27;;
37781;SDS011;23621;50.878;4.584;2022-12-31T08:14:26;3.08;;;1.17;;
37781;SDS011;23621;50.878;4.584;2022-12-31T08:16:55;1.40;;;0.95;;
37781;SDS011;23621;50.878;4.584;2022-12-31T08:19:23;2.10;;;1.08;;
37781;SDS011;23621;50.878;4.584;2022-12-31T08:22:00;2.00;;;1.10;;
37781;SDS011;23621;50.878;4.584;2022-12-31T08:27:41;1.38;;;1.27;;
37781;SDS011;23621;50.878;4.584;2022-12-31T08:30:12;3.08;;;1.25;;
37781;SDS011;23621;50.878;4.584;2022-12-31T08:37:56;2.33;;;1.38;;
37781;SDS011;23621;50.878;4.584;2022-12-31T08:40:55;2.28;;;1.52;;
37781;SDS011;23621;50.878;4.584;2022-12-31T08:43:32;2.67;;;1.33;;
37781;SDS011;23621;50.878;4.584;2022-12-31T08:46:22;4.47;;;1.27;;
37781;SDS011;23621;50.878;4.584;2022-12-31T08:48:54;3.60;;;1.35;;
37781;SDS011;23621;50.878;4.584;2022-12-31T08:51:22;1.20;;;1.00;;
37781;SDS011;23621;50.878;4.584;2022-12-31T08:53:51;2.03;;;1.17;;
37781;SDS011;23621;50.878;4.584;2022-12-31T09:05:03;1.98;;;0.98;;
37781;SDS011;23621;50.878;4.584;2022-12-31T09:10:53;3.75;;;1.30;;
37781;SDS011;23621;50.878;4.584;2022-12-31T09:18:54;2.97;;;1.58;;
37781;SDS011;23621;50.878;4.584;2022-12-31T09:21:21;4.20;;;1.52;;
37781;SDS011;23621;50.878;4.584;2022-12-31T09:23:48;3.55;;;1.50;;
37781;SDS011;23621;50.878;4.584;2022-12-31T09:26:25;6.47;;;1.38;;
37781;SDS011;23621;50.878;4.584;2022-12-31T09:29:21;2.53;;;1.55;;
37781;SDS011;23621;50.878;4.584;2022-12-31T09:32:24;5.70;;;1.60;;
37781;SDS011;23621;50.878;4.584;2022-12-31T09:35:20;2.55;;;1.42;;
37781;SDS011;23621;50.878;4.584;2022-12-31T09:37:48;2.55;;;1.20;;
37781;SDS011;23621;50.878;4.584;2022-12-31T09:54:51;3.35;;;1.55;;
37781;SDS011;23621;50.878;4.584;2022-12-31T10:11:28;2.72;;;1.40;;
37781;SDS011;23621;50.878;4.584;2022-12-31T10:14:18;4.32;;;1.60;;
37781;SDS011;23621;50.878;4.584;2022-12-31T10:28:52;3.67;;;1.35;;
37781;SDS011;23621;50.878;4.584;2022-12-31T10:36:46;3.05;;;1.50;;
37781;SDS011;23621;50.878;4.584;2022-12-31T10:45:19;2.95;;;1.45;;
37781;SDS011;23621;50.878;4.584;2022-12-31T10:56:56;3.30;;;1.40;;
37781;SDS011;23621;50.878;4.584;2022-12-31T11:08:22;4.15;;;2.00;;
37781;SDS011;23621;50.878;4.584;2022-12-31T11:20:02;4.00;;;1.55;;
37781;SDS011;23621;50.878;4.584;2022-12-31T11:22:55;7.45;;;2.08;;
37781;SDS011;23621;50.878;4.584;2022-12-31T11:42:18;3.30;;;1.70;;
37781;SDS011;23621;50.878;4.584;2022-12-31T11:53:32;3.10;;;1.60;;
37781;SDS011;23621;50.878;4.584;2022-12-31T11:56:40;4.35;;;1.50;;
37781;SDS011;23621;50.878;4.584;2022-12-31T11:59:12;2.80;;;1.60;;
37781;SDS011;23621;50.878;4.584;2022-12-31T12:01:54;4.57;;;1.98;;
37781;SDS011;23621;50.878;4.584;2022-12-31T12:04:24;5.03;;;2.10;;
37781;SDS011;23621;50.878;4.584;2022-12-31T12:06:51;2.55;;;1.90;;
37781;SDS011;23621;50.878;4.584;2022-12-31T12:09:29;2.45;;;1.88;;
37781;SDS011;23621;50.878;4.584;2022-12-31T12:12:00;4.00;;;1.83;;
37781;SDS011;23621;50.878;4.584;2022-12-31T12:14:31;3.17;;;1.70;;
37781;SDS011;23621;50.878;4.584;2022-12-31T12:17:01;3.92;;;2.35;;
37781;SDS011;23621;50.878;4.584;2022-12-31T12:19:32;3.00;;;1.52;;
37781;SDS011;23621;50.878;4.584;2022-12-31T12:22:11;3.55;;;1.85;;
37781;SDS011;23621;50.878;4.584;2022-12-31T12:24:49;4.20;;;1.50;;
37781;SDS011;23621;50.878;4.584;2022-12-31T12:27:37;4.20;;;1.70;;
37781;SDS011;23621;50.878;4.584;2022-12-31T12:30:16;2.80;;;1.80;;
37781;SDS011;23621;50.878;4.584;2022-12-31T12:33:12;3.35;;;1.80;;
37781;SDS011;23621;50.878;4.584;2022-12-31T12:35:44;1.98;;;1.70;;
37781;SDS011;23621;50.878;4.584;2022-12-31T12:40:40;5.82;;;1.75;;
37781;SDS011;23621;50.878;4.584;2022-12-31T12:43:21;3.50;;;1.80;;
37781;SDS011;23621;50.878;4.584;2022-12-31T12:45:53;3.80;;;1.75;;
37781;SDS011;23621;50.878;4.584;2022-12-31T12:51:05;5.88;;;2.10;;
37781;SDS011;23621;50.878;4.584;2022-12-31T12:56:39;4.95;;;2.22;;
37781;SDS011;23621;50.878;4.584;2022-12-31T12:59:22;4.65;;;1.88;;
37781;SDS011;23621;50.878;4.584;2022-12-31T13:07:58;3.10;;;1.80;;
37781;SDS011;23621;50.878;4.584;2022-12-31T13:10:59;5.13;;;2.20;;
37781;SDS011;23621;50.878;4.584;2022-12-31T13:16:39;3.95;;;1.88;;
37781;SDS011;23621;50.878;4.584;2022-12-31T13:22:26;4.95;;;2.10;;
37781;SDS011;23621;50.878;4.584;2022-12-31T13:25:20;6.47;;;2.63;;
37781;SDS011;23621;50.878;4.584;2022-12-31T13:28:04;4.40;;;2.83;;
37781;SDS011;23621;50.878;4.584;2022-12-31T13:30:40;48.15;;;9.43;;
37781;SDS011;23621;50.878;4.584;2022-12-31T13:36:14;27.08;;;6.50;;
37781;SDS011;23621;50.878;4.584;2022-12-31T13:38:48;15.65;;;3.70;;
37781;SDS011;23621;50.878;4.584;2022-12-31T13:46:58;51.47;;;11.73;;
37781;SDS011;23621;50.878;4.584;2022-12-31T13:49:45;10.05;;;3.20;;
37781;SDS011;23621;50.878;4.584;2022-12-31T13:55:10;27.70;;;6.05;;
37781;SDS011;23621;50.878;4.584;2022-12-31T13:58:10;17.20;;;4.65;;
37781;SDS011;23621;50.878;4.584;2022-12-31T14:00:58;7.82;;;2.78;;
37781;SDS011;23621;50.878;4.584;2022-12-31T14:06:35;8.35;;;3.13;;
37781;SDS011;23621;50.878;4.584;2022-12-31T14:09:16;6.57;;;2.95;;
37781;SDS011;23621;50.878;4.584;2022-12-31T14:14:35;8.93;;;2.53;;
37781;SDS011;23621;50.878;4.584;2022-12-31T14:17:12;10.32;;;3.35;;
37781;SDS011;23621;50.878;4.584;2022-12-31T14:19:51;7.13;;;2.97;;
37781;SDS011;23621;50.878;4.584;2022-12-31T14:22:28;5.93;;;2.20;;
37781;SDS011;23621;50.878;4.584;2022-12-31T14:25:33;5.22;;;2.70;;
37781;SDS011;23621;50.878;4.584;2022-12-31T14:28:30;5.22;;;2.50;;
37781;SDS011;23621;50.878;4.584;2022-12-31T14:36:56;3.33;;;1.80;;
37781;SDS011;23621;50.878;4.584;2022-12-31T14:42:35;5.38;;;2.72;;
37781;SDS011;23621;50.878;4.584;2022-12-31T14:50:55;3.88;;;1.75;;
37781;SDS011;23621;50.878;4.584;2022-12-31T14:53:26;2.78;;;1.90;;
37781;SDS011;23621;50.878;4.584;2022-12-31T14:55:58;4.93;;;2.40;;
37781;SDS011;23621;50.878;4.584;2022-12-31T14:58:37;3.00;;;1.98;;
37781;SDS011;23621;50.878;4.584;2022-12-31T15:01:06;4.07;;;2.38;;
37781;SDS011;23621;50.878;4.584;2022-12-31T15:03:47;5.03;;;2.10;;
37781;SDS011;23621;50.878;4.584;2022-12-31T15:23:45;4.07;;;2.03;;
37781;SDS011;23621;50.878;4.584;2022-12-31T15:26:28;4.65;;;2.00;;
37781;SDS011;23621;50.878;4.584;2022-12-31T15:29:03;4.05;;;1.80;;
37781;SDS011;23621;50.878;4.584;2022-12-31T15:31:33;4.13;;;1.70;;
37781;SDS011;23621;50.878;4.584;2022-12-31T15:34:05;3.88;;;1.90;;
37781;SDS011;23621;50.878;4.584;2022-12-31T15:36:51;7.80;;;2.25;;
37781;SDS011;23621;50.878;4.584;2022-12-31T15:41:56;3.13;;;1.98;;
37781;SDS011;23621;50.878;4.584;2022-12-31T15:44:48;3.33;;;2.20;;
37781;SDS011;23621;50.878;4.584;2022-12-31T15:47:28;2.17;;;1.67;;
37781;SDS011;23621;50.878;4.584;2022-12-31T15:50:02;3.30;;;1.65;;
37781;SDS011;23621;50.878;4.584;2022-12-31T15:52:52;2.53;;;1.65;;
37781;SDS011;23621;50.878;4.584;2022-12-31T15:55:24;3.05;;;2.13;;
37781;SDS011;23621;50.878;4.584;2022-12-31T15:57:52;2.05;;;1.73;;
37781;SDS011;23621;50.878;4.584;2022-12-31T16:00:23;3.28;;;1.75;;
37781;SDS011;23621;50.878;4.584;2022-12-31T16:02:51;3.50;;;1.80;;
37781;SDS011;23621;50.878;4.584;2022-12-31T16:07:55;7.03;;;2.30;;
37781;SDS011;23621;50.878;4.584;2022-12-31T16:10:25;5.03;;;1.85;;
37781;SDS011;23621;50.878;4.584;2022-12-31T16:12:55;3.65;;;1.70;;
37781;SDS011;23621;50.878;4.584;2022-12-31T16:15:25;5.10;;;1.77;;
37781;SDS011;23621;50.878;4.584;2022-12-31T16:18:02;4.68;;;2.22;;
37781;SDS011;23621;50.878;4.584;2022-12-31T16:20:47;4.88;;;2.03;;
37781;SDS011;23621;50.878;4.584;2022-12-31T16:23:20;2.08;;;1.60;;
37781;SDS011;23621;50.878;4.584;2022-12-31T16:25:50;3.00;;;1.83;;
37781;SDS011;23621;50.878;4.584;2022-12-31T16:28:21;2.17;;;1.92;;
37781;SDS011;23621;50.878;4.584;2022-12-31T16:31:01;3.60;;;1.88;;
37781;SDS011;23621;50.878;4.584;2022-12-31T16:33:30;3.90;;;1.90;;
37781;SDS011;23621;50.878;4.584;2022-12-31T16:35:58;3.28;;;2.30;;
37781;SDS011;23621;50.878;4.584;2022-12-31T16:38:30;4.03;;;2.08;;
37781;SDS011;23621;50.878;4.584;2022-12-31T16:43:29;4.55;;;2.10;;
37781;SDS011;23621;50.878;4.584;2022-12-31T16:46:20;6.68;;;2.00;;
37781;SDS011;23621;50.878;4.584;2022-12-31T16:48:53;5.63;;;2.00;;
37781;SDS011;23621;50.878;4.584;2022-12-31T16:51:22;3.03;;;2.15;;
37781;SDS011;23621;50.878;4.584;2022-12-31T16:53:52;2.13;;;1.80;;
37781;SDS011;23621;50.878;4.584;2022-12-31T16:56:25;3.03;;;2.10;;
37781;SDS011;23621;50.878;4.584;2022-12-31T16:58:59;4.57;;;2.00;;
37781;SDS011;23621;50.878;4.584;2022-12-31T17:01:30;4.50;;;2.05;;
37781;SDS011;23621;50.878;4.584;2022-12-31T17:04:01;4.47;;;2.22;;
37781;SDS011;23621;50.878;4.584;2022-12-31T17:06:32;3.55;;;1.60;;
37781;SDS011;23621;50.878;4.584;2022-12-31T17:11:33;6.97;;;2.63;;
37781;SDS011;23621;50.878;4.584;2022-12-31T17:16:37;2.70;;;1.90;;
37781;SDS011;23621;50.878;4.584;2022-12-31T17:21:55;3.63;;;2.38;;
37781;SDS011;23621;50.878;4.584;2022-12-31T17:24:22;4.85;;;1.80;;
37781;SDS011;23621;50.878;4.584;2022-12-31T17:26:49;3.28;;;1.88;;
37781;SDS011;23621;50.878;4.584;2022-12-31T17:29:18;2.85;;;1.77;;
37781;SDS011;23621;50.878;4.584;2022-12-31T17:31:59;4.13;;;2.17;;
37781;SDS011;23621;50.878;4.584;2022-12-31T17:34:36;2.33;;;2.00;;
37781;SDS011;23621;50.878;4.584;2022-12-31T17:37:15;4.32;;;2.00;;
37781;SDS011;23621;50.878;4.584;2022-12-31T17:39:50;4.35;;;2.22;;
37781;SDS011;23621;50.878;4.584;2022-12-31T17:42:21;5.10;;;2.20;;
37781;SDS011;23621;50.878;4.584;2022-12-31T17:44:58;4.15;;;2.17;;
37781;SDS011;23621;50.878;4.584;2022-12-31T17:47:55;4.35;;;2.00;;
37781;SDS011;23621;50.878;4.584;2022-12-31T17:50:25;3.40;;;1.85;;
37781;SDS011;23621;50.878;4.584;2022-12-31T17:53:07;4.65;;;2.17;;
37781;SDS011;23621;50.878;4.584;2022-12-31T17:55:36;4.28;;;2.53;;
37781;SDS011;23621;50.878;4.584;2022-12-31T17:58:04;3.80;;;2.20;;
37781;SDS011;23621;50.878;4.584;2022-12-31T18:00:32;4.85;;;1.90;;
37781;SDS011;23621;50.878;4.584;2022-12-31T18:03:01;2.90;;;2.03;;
37781;SDS011;23621;50.878;4.584;2022-12-31T18:05:28;4.60;;;2.45;;
37781;SDS011;23621;50.878;4.584;2022-12-31T18:07:55;6.35;;;2.17;;
37781;SDS011;23621;50.878;4.584;2022-12-31T18:10:22;3.90;;;2.17;;
37781;SDS011;23621;50.878;4.584;2022-12-31T18:12:51;5.75;;;1.98;;
37781;SDS011;23621;50.878;4.584;2022-12-31T18:15:19;7.07;;;2.15;;
37781;SDS011;23621;50.878;4.584;2022-12-31T18:17:47;6.40;;;2.08;;
37781;SDS011;23621;50.878;4.584;2022-12-31T18:20:15;6.28;;;2.10;;
37781;SDS011;23621;50.878;4.584;2022-12-31T18:22:43;3.75;;;2.47;;
37781;SDS011;23621;50.878;4.584;2022-12-31T18:25:21;4.00;;;2.17;;
37781;SDS011;23621;50.878;4.584;2022-12-31T18:27:49;4.75;;;2.13;;
37781;SDS011;23621;50.878;4.584;2022-12-31T18:30:17;4.57;;;2.50;;
37781;SDS011;23621;50.878;4.584;2022-12-31T18:32:44;3.70;;;2.08;;
37781;SDS011;23621;50.878;4.584;2022-12-31T18:35:14;6.10;;;2.10;;
37781;SDS011;23621;50.878;4.584;2022-12-31T18:38:05;4.20;;;2.63;;
37781;SDS011;23621;50.878;4.584;2022-12-31T18:40:37;4.75;;;2.15;;
37781;SDS011;23621;50.878;4.584;2022-12-31T18:43:11;6.28;;;2.08;;
37781;SDS011;23621;50.878;4.584;2022-12-31T18:45:41;3.45;;;1.80;;
37781;SDS011;23621;50.878;4.584;2022-12-31T18:48:08;4.68;;;2.20;;
37781;SDS011;23621;50.878;4.584;2022-12-31T18:50:35;6.57;;;2.95;;
37781;SDS011;23621;50.878;4.584;2022-12-31T18:53:03;6.72;;;2.17;;
37781;SDS011;23621;50.878;4.584;2022-12-31T18:55:38;4.45;;;2.00;;
37781;SDS011;23621;50.878;4.584;2022-12-31T18:58:06;5.35;;;2.38;;
37781;SDS011;23621;50.878;4.584;2022-12-31T19:00:35;5.32;;;2.30;;
37781;SDS011;23621;50.878;4.584;2022-12-31T19:03:03;5.05;;;2.55;;
37781;SDS011;23621;50.878;4.584;2022-12-31T19:05:32;3.45;;;1.65;;
37781;SDS011;23621;50.878;4.584;2022-12-31T19:08:01;7.10;;;2.42;;
37781;SDS011;23621;50.878;4.584;2022-12-31T19:10:28;6.80;;;2.28;;
37781;SDS011;23621;50.878;4.584;2022-12-31T19:12:55;10.75;;;2.53;;
37781;SDS011;23621;50.878;4.584;2022-12-31T19:15:30;4.22;;;1.98;;
37781;SDS011;23621;50.878;4.584;2022-12-31T19:18:06;4.93;;;1.98;;
37781;SDS011;23621;50.878;4.584;2022-12-31T19:20:34;2.25;;;2.00;;
37781;SDS011;23621;50.878;4.584;2022-12-31T19:23:02;4.22;;;2.03;;
37781;SDS011;23621;50.878;4.584;2022-12-31T19:25:33;6.43;;;2.15;;
37781;SDS011;23621;50.878;4.584;2022-12-31T19:28:01;5.93;;;2.35;;
37781;SDS011;23621;50.878;4.584;2022-12-31T19:30:29;3.83;;;2.38;;
37781;SDS011;23621;50.878;4.584;2022-12-31T19:32:59;5.40;;;2.90;;
37781;SDS011;23621;50.878;4.584;2022-12-31T19:35:26;3.92;;;1.88;;
37781;SDS011;23621;50.878;4.584;2022-12-31T19:37:53;4.55;;;2.47;;
37781;SDS011;23621;50.878;4.584;2022-12-31T19:40:22;7.35;;;2.42;;
37781;SDS011;23621;50.878;4.584;2022-12-31T19:42:51;3.55;;;2.15;;
37781;SDS011;23621;50.878;4.584;2022-12-31T19:45:25;8.15;;;2.25;;
37781;SDS011;23621;50.878;4.584;2022-12-31T19:47:55;4.05;;;2.30;;
37781;SDS011;23621;50.878;4.584;2022-12-31T19:50:23;3.22;;;2.10;;
37781;SDS011;23621;50.878;4.584;2022-12-31T19:52:53;4.68;;;2.72;;
37781;SDS011;23621;50.878;4.584;2022-12-31T19:55:22;3.65;;;2.13;;